sensor_id;sensor_type;location;lat;lon;timestamp;pressure;altitude;pressure_sealevel;temperature;humidity
49473;BME280;73594;50.944;6.950;2024-02-21T00:00:48;101911.00;;;9.09;84.90
49473;BME280;73594;50.944;6.950;2024-02-21T00:03:34;101907.66;;;9.14;84.89
49473;BME280;73594;50.944;6.950;2024-02-21T00:06:19;101906.41;;;9.16;84.58
49473;BME280;73594;50.944;6.950;2024-02-21T00:09:05;101911.19;;;9.14;85.02
49473;BME280;73594;50.944;6.950;2024-02-21T00:11:50;101902.66;;;9.17;85.05
49473;BME280;73594;50.944;6.950;2024-02-21T00:14:36;101906.41;;;9.16;85.10
49473;BME280;73594;50.944;6.950;2024-02-21T00:17:22;101896.88;;;9.14;85.38
49473;BME280;73594;50.944;6.950;2024-02-21T00:20:07;101905.78;;;9.14;85.33
49473;BME280;73594;50.944;6.950;2024-02-21T00:22:53;101892.25;;;9.21;85.40
49473;BME280;73594;50.944;6.950;2024-02-21T00:25:40;101881.44;;;9.21;85.13
49473;BME280;73594;50.944;6.950;2024-02-21T00:28:25;101884.59;;;9.18;85.62
49473;BME280;73594;50.944;6.950;2024-02-21T00:31:11;101883.78;;;9.17;85.34
49473;BME280;73594;50.944;6.950;2024-02-21T00:33:57;101875.66;;;9.17;85.71
49473;BME280;73594;50.944;6.950;2024-02-21T00:36:43;101878.59;;;9.16;85.71
49473;BME280;73594;50.944;6.950;2024-02-21T00:39:28;101873.03;;;9.11;85.91
49473;BME280;73594;50.944;6.950;2024-02-21T00:42:14;101874.31;;;9.08;85.98
49473;BME280;73594;50.944;6.950;2024-02-21T00:45:00;101872.81;;;9.12;86.19
49473;BME280;73594;50.944;6.950;2024-02-21T00:47:45;101871.38;;;9.09;86.45
49473;BME280;73594;50.944;6.950;2024-02-21T00:50:31;101867.63;;;9.11;86.48
49473;BME280;73594;50.944;6.950;2024-02-21T00:53:17;101866.66;;;9.05;86.88
49473;BME280;73594;50.944;6.950;2024-02-21T00:56:03;101860.97;;;9.13;87.20
49473;BME280;73594;50.944;6.950;2024-02-21T00:58:48;101847.88;;;9.17;87.11
49473;BME280;73594;50.944;6.950;2024-02-21T01:01:34;101840.81;;;9.16;86.96
49473;BME280;73594;50.944;6.950;2024-02-21T01:04:20;101842.91;;;9.14;86.81
49473;BME280;73594;50.944;6.950;2024-02-21T01:07:05;101847.31;;;9.08;87.20
49473;BME280;73594;50.944;6.950;2024-02-21T01:09:51;101840.28;;;9.07;87.44
49473;BME280;73594;50.944;6.950;2024-02-21T01:12:37;101841.59;;;8.98;87.85
49473;BME280;73594;50.944;6.950;2024-02-21T01:15:22;101830.38;;;9.01;87.94
49473;BME280;73594;50.944;6.950;2024-02-21T01:18:08;101843.41;;;9.04;88.08
49473;BME280;73594;50.944;6.950;2024-02-21T01:20:54;101835.72;;;9.07;87.82
49473;BME280;73594;50.944;6.950;2024-02-21T01:23:39;101829.06;;;9.10;88.30
49473;BME280;73594;50.944;6.950;2024-02-21T01:26:25;101827.84;;;9.06;88.29
49473;BME280;73594;50.944;6.950;2024-02-21T01:29:10;101828.28;;;9.03;88.47
49473;BME280;73594;50.944;6.950;2024-02-21T01:31:56;101819.81;;;8.99;89.14
49473;BME280;73594;50.944;6.950;2024-02-21T01:34:42;101819.53;;;9.07;88.77
49473;BME280;73594;50.944;6.950;2024-02-21T01:37:27;101819.16;;;9.04;89.08
49473;BME280;73594;50.944;6.950;2024-02-21T01:40:14;101814.63;;;8.98;89.56
49473;BME280;73594;50.944;6.950;2024-02-21T01:43:00;101813.97;;;9.02;89.28
49473;BME280;73594;50.944;6.950;2024-02-21T01:45:52;101814.19;;;9.01;89.61
49473;BME280;73594;50.944;6.950;2024-02-21T01:48:38;101803.56;;;9.06;89.66
49473;BME280;73594;50.944;6.950;2024-02-21T01:51:24;101807.91;;;9.07;89.17
49473;BME280;73594;50.944;6.950;2024-02-21T01:54:12;101796.53;;;9.05;89.63
49473;BME280;73594;50.944;6.950;2024-02-21T01:56:59;101796.31;;;9.06;89.32
49473;BME280;73594;50.944;6.950;2024-02-21T01:59:45;101794.13;;;9.15;88.88
49473;BME280;73594;50.944;6.950;2024-02-21T02:02:31;101784.25;;;9.09;89.35
49473;BME280;73594;50.944;6.950;2024-02-21T02:05:17;101784.69;;;9.06;89.71
49473;BME280;73594;50.944;6.950;2024-02-21T02:08:06;101770.88;;;8.96;89.77
49473;BME280;73594;50.944;6.950;2024-02-21T02:10:52;101770.88;;;8.96;90.06
49473;BME280;73594;50.944;6.950;2024-02-21T02:13:38;101759.88;;;8.97;90.02
49473;BME280;73594;50.944;6.950;2024-02-21T02:16:23;101760.13;;;8.89;90.42
49473;BME280;73594;50.944;6.950;2024-02-21T02:19:09;101757.66;;;8.88;91.00
49473;BME280;73594;50.944;6.950;2024-02-21T02:22:11;101754.97;;;8.88;90.58
49473;BME280;73594;50.944;6.950;2024-02-21T02:25:01;101755.78;;;8.88;90.84
49473;BME280;73594;50.944;6.950;2024-02-21T02:27:46;101738.34;;;8.91;90.66
49473;BME280;73594;50.944;6.950;2024-02-21T02:30:33;101738.78;;;8.88;90.53
49473;BME280;73594;50.944;6.950;2024-02-21T02:33:19;101719.47;;;8.91;90.82
49473;BME280;73594;50.944;6.950;2024-02-21T02:36:05;101714.06;;;8.91;90.74
49473;BME280;73594;50.944;6.950;2024-02-21T02:38:51;101711.00;;;8.87;90.63
49473;BME280;73594;50.944;6.950;2024-02-21T02:41:36;101712.25;;;8.85;90.72
49473;BME280;73594;50.944;6.950;2024-02-21T02:44:22;101717.22;;;8.88;90.43
49473;BME280;73594;50.944;6.950;2024-02-21T02:47:08;101698.56;;;8.86;90.50
49473;BME280;73594;50.944;6.950;2024-02-21T02:49:54;101706.41;;;8.88;90.62
49473;BME280;73594;50.944;6.950;2024-02-21T02:52:40;101714.97;;;8.85;90.75
49473;BME280;73594;50.944;6.950;2024-02-21T02:55:26;101703.34;;;8.84;90.70
49473;BME280;73594;50.944;6.950;2024-02-21T02:58:11;101708.06;;;8.89;90.95
49473;BME280;73594;50.944;6.950;2024-02-21T03:00:57;101711.44;;;8.84;91.04
49473;BME280;73594;50.944;6.950;2024-02-21T03:03:43;101705.06;;;8.78;91.16
49473;BME280;73594;50.944;6.950;2024-02-21T03:06:30;101703.56;;;8.83;91.07
49473;BME280;73594;50.944;6.950;2024-02-21T03:09:16;101696.53;;;8.82;91.02
49473;BME280;73594;50.944;6.950;2024-02-21T03:12:03;101700.44;;;8.86;90.90
49473;BME280;73594;50.944;6.950;2024-02-21T03:14:49;101693.59;;;8.83;90.95
49473;BME280;73594;50.944;6.950;2024-02-21T03:17:35;101679.91;;;8.85;90.91
49473;BME280;73594;50.944;6.950;2024-02-21T03:20:20;101678.25;;;8.84;90.98
49473;BME280;73594;50.944;6.950;2024-02-21T03:23:06;101666.81;;;8.88;90.92
49473;BME280;73594;50.944;6.950;2024-02-21T03:25:52;101664.94;;;8.89;90.96
49473;BME280;73594;50.944;6.950;2024-02-21T03:28:37;101670.16;;;8.84;90.90
49473;BME280;73594;50.944;6.950;2024-02-21T03:31:25;101668.28;;;8.84;90.88
49473;BME280;73594;50.944;6.950;2024-02-21T03:34:10;101652.56;;;8.81;91.12
49473;BME280;73594;50.944;6.950;2024-02-21T03:36:56;101646.94;;;8.83;91.00
49473;BME280;73594;50.944;6.950;2024-02-21T03:39:42;101664.63;;;8.78;91.17
49473;BME280;73594;50.944;6.950;2024-02-21T03:42:28;101660.28;;;8.77;91.09
49473;BME280;73594;50.944;6.950;2024-02-21T03:45:15;101649.34;;;8.72;91.20
49473;BME280;73594;50.944;6.950;2024-02-21T03:48:01;101634.44;;;8.70;91.22
49473;BME280;73594;50.944;6.950;2024-02-21T03:50:47;101644.41;;;8.69;91.58
49473;BME280;73594;50.944;6.950;2024-02-21T03:53:33;101648.28;;;8.73;91.06
49473;BME280;73594;50.944;6.950;2024-02-21T03:56:19;101643.72;;;8.74;91.52
49473;BME280;73594;50.944;6.950;2024-02-21T03:59:04;101648.91;;;8.75;91.35
49473;BME280;73594;50.944;6.950;2024-02-21T04:01:53;101655.09;;;8.76;91.23
49473;BME280;73594;50.944;6.950;2024-02-21T04:04:43;101653.41;;;8.82;91.44
49473;BME280;73594;50.944;6.950;2024-02-21T04:07:28;101649.50;;;8.77;91.44
49473;BME280;73594;50.944;6.950;2024-02-21T04:10:14;101659.06;;;8.73;91.82
49473;BME280;73594;50.944;6.950;2024-02-21T04:12:59;101651.06;;;8.67;92.03
49473;BME280;73594;50.944;6.950;2024-02-21T04:15:45;101656.22;;;8.68;92.03
49473;BME280;73594;50.944;6.950;2024-02-21T04:18:31;101646.94;;;8.64;92.31
49473;BME280;73594;50.944;6.950;2024-02-21T04:21:17;101647.16;;;8.63;nan
49473;BME280;73594;50.944;6.950;2024-02-21T04:24:03;101646.13;;;8.64;92.01
49473;BME280;73594;50.944;6.950;2024-02-21T04:26:50;101633.63;;;8.69;91.72
49473;BME280;73594;50.944;6.950;2024-02-21T04:29:36;101639.00;;;8.69;91.92
49473;BME280;73594;50.944;6.950;2024-02-21T04:32:22;101635.94;;;8.66;91.94
49473;BME280;73594;50.944;6.950;2024-02-21T04:35:08;101626.34;;;8.70;92.00
49473;BME280;73594;50.944;6.950;2024-02-21T04:37:53;101615.34;;;8.71;91.68
49473;BME280;73594;50.944;6.950;2024-02-21T04:40:39;101624.56;;;8.64;92.40
49473;BME280;73594;50.944;6.950;2024-02-21T04:43:25;101626.72;;;8.55;92.37
49473;BME280;73594;50.944;6.950;2024-02-21T04:46:10;101626.88;;;8.60;91.69
49473;BME280;73594;50.944;6.950;2024-02-21T04:48:56;101630.44;;;8.54;91.51
49473;BME280;73594;50.944;6.950;2024-02-21T04:51:42;101628.19;;;8.51;91.56
49473;BME280;73594;50.944;6.950;2024-02-21T04:54:27;101629.22;;;8.50;91.84
49473;BME280;73594;50.944;6.950;2024-02-21T04:57:13;101626.38;;;8.45;91.64
49473;BME280;73594;50.944;6.950;2024-02-21T05:00:02;101626.38;;;8.45;91.96
49473;BME280;73594;50.944;6.950;2024-02-21T05:02:49;101624.28;;;8.47;91.98
49473;BME280;73594;50.944;6.950;2024-02-21T05:05:34;101620.91;;;8.52;91.84
49473;BME280;73594;50.944;6.950;2024-02-21T05:08:20;101618.81;;;8.54;91.24
49473;BME280;73594;50.944;6.950;2024-02-21T05:11:06;101622.31;;;8.61;91.13
49473;BME280;73594;50.944;6.950;2024-02-21T05:13:52;101622.97;;;8.56;90.89
49473;BME280;73594;50.944;6.950;2024-02-21T05:16:38;101618.81;;;8.54;91.45
49473;BME280;73594;50.944;6.950;2024-02-21T05:19:24;101615.06;;;8.55;91.05
49473;BME280;73594;50.944;6.950;2024-02-21T05:22:09;101614.09;;;8.49;91.29
49473;BME280;73594;50.944;6.950;2024-02-21T05:24:55;101615.59;;;8.45;91.70
49473;BME280;73594;50.944;6.950;2024-02-21T05:27:41;101619.56;;;8.42;91.92
49473;BME280;73594;50.944;6.950;2024-02-21T05:30:26;101621.75;;;8.52;91.88
49473;BME280;73594;50.944;6.950;2024-02-21T05:33:12;101610.13;;;8.52;91.23
49473;BME280;73594;50.944;6.950;2024-02-21T05:35:58;101603.69;;;8.53;90.32
49473;BME280;73594;50.944;6.950;2024-02-21T05:38:44;101598.53;;;8.51;89.95
49473;BME280;73594;50.944;6.950;2024-02-21T05:41:29;101588.56;;;8.52;89.69
49473;BME280;73594;50.944;6.950;2024-02-21T05:44:15;101601.41;;;8.56;89.49
49473;BME280;73594;50.944;6.950;2024-02-21T05:47:00;101600.19;;;8.52;89.47
49473;BME280;73594;50.944;6.950;2024-02-21T05:49:46;101595.84;;;8.51;89.66
49473;BME280;73594;50.944;6.950;2024-02-21T05:52:32;101606.34;;;8.59;89.79
49473;BME280;73594;50.944;6.950;2024-02-21T05:55:17;101598.50;;;8.58;89.61
49473;BME280;73594;50.944;6.950;2024-02-21T05:58:03;101590.19;;;8.59;90.03
49473;BME280;73594;50.944;6.950;2024-02-21T06:00:49;101595.81;;;8.58;90.42
49473;BME280;73594;50.944;6.950;2024-02-21T06:03:34;101590.63;;;8.56;90.92
49473;BME280;73594;50.944;6.950;2024-02-21T06:06:20;101593.09;;;8.58;90.80
49473;BME280;73594;50.944;6.950;2024-02-21T06:09:07;101587.72;;;8.58;91.17
49473;BME280;73594;50.944;6.950;2024-02-21T06:11:52;101592.09;;;8.52;91.40
49473;BME280;73594;50.944;6.950;2024-02-21T06:14:38;101586.91;;;8.57;91.90
49473;BME280;73594;50.944;6.950;2024-02-21T06:17:24;101577.16;;;8.56;91.58
49473;BME280;73594;50.944;6.950;2024-02-21T06:20:09;101575.88;;;8.59;91.72
49473;BME280;73594;50.944;6.950;2024-02-21T06:22:55;101574.47;;;8.56;91.56
49473;BME280;73594;50.944;6.950;2024-02-21T06:25:41;101569.00;;;8.63;91.48
49473;BME280;73594;50.944;6.950;2024-02-21T06:28:26;101567.81;;;8.59;91.41
49473;BME280;73594;50.944;6.950;2024-02-21T06:31:12;101566.31;;;8.63;91.12
49473;BME280;73594;50.944;6.950;2024-02-21T06:33:57;101566.53;;;8.61;91.00
49473;BME280;73594;50.944;6.950;2024-02-21T06:36:44;101562.78;;;8.62;91.01
49473;BME280;73594;50.944;6.950;2024-02-21T06:39:30;101565.03;;;8.65;90.88
49473;BME280;73594;50.944;6.950;2024-02-21T06:42:16;101555.44;;;8.69;90.70
49473;BME280;73594;50.944;6.950;2024-02-21T06:45:01;101548.88;;;8.65;90.60
49473;BME280;73594;50.944;6.950;2024-02-21T06:47:47;101543.31;;;8.60;90.53
49473;BME280;73594;50.944;6.950;2024-02-21T06:50:32;101537.47;;;8.63;90.83
49473;BME280;73594;50.944;6.950;2024-02-21T06:53:18;101529.63;;;8.62;90.82
49473;BME280;73594;50.944;6.950;2024-02-21T06:56:04;101531.50;;;8.61;90.31
49473;BME280;73594;50.944;6.950;2024-02-21T06:58:49;101532.09;;;8.63;90.21
49473;BME280;73594;50.944;6.950;2024-02-21T07:01:35;101527.75;;;8.62;90.36
49473;BME280;73594;50.944;6.950;2024-02-21T07:04:21;101526.09;;;8.61;89.79
49473;BME280;73594;50.944;6.950;2024-02-21T07:07:06;101523.84;;;8.58;90.04
49473;BME280;73594;50.944;6.950;2024-02-21T07:09:52;101529.25;;;8.58;89.80
49473;BME280;73594;50.944;6.950;2024-02-21T07:12:39;101521.16;;;8.58;89.97
49473;BME280;73594;50.944;6.950;2024-02-21T07:15:27;101532.53;;;8.60;90.26
49473;BME280;73594;50.944;6.950;2024-02-21T07:18:14;101522.63;;;8.54;90.36
49473;BME280;73594;50.944;6.950;2024-02-21T07:20:59;101525.56;;;8.53;90.56
49473;BME280;73594;50.944;6.950;2024-02-21T07:23:45;101510.44;;;8.52;90.82
49473;BME280;73594;50.944;6.950;2024-02-21T07:26:31;101512.53;;;8.50;90.91
49473;BME280;73594;50.944;6.950;2024-02-21T07:29:17;101509.38;;;8.53;90.79
49473;BME280;73594;50.944;6.950;2024-02-21T07:32:02;101521.66;;;8.49;90.83
49473;BME280;73594;50.944;6.950;2024-02-21T07:34:48;101517.25;;;8.54;90.88
49473;BME280;73594;50.944;6.950;2024-02-21T07:37:34;101510.16;;;8.60;90.55
49473;BME280;73594;50.944;6.950;2024-02-21T07:40:19;101513.94;;;8.52;90.49
49473;BME280;73594;50.944;6.950;2024-02-21T07:43:05;101509.97;;;8.55;90.45
49473;BME280;73594;50.944;6.950;2024-02-21T07:45:51;101517.88;;;8.56;90.90
49473;BME280;73594;50.944;6.950;2024-02-21T07:48:36;101511.03;;;8.54;90.85
49473;BME280;73594;50.944;6.950;2024-02-21T07:51:22;101510.22;;;8.53;90.82
49473;BME280;73594;50.944;6.950;2024-02-21T07:54:07;101505.44;;;8.55;90.48
49473;BME280;73594;50.944;6.950;2024-02-21T07:56:53;101499.84;;;8.57;90.93
49473;BME280;73594;50.944;6.950;2024-02-21T07:59:39;101501.41;;;8.64;90.86
49473;BME280;73594;50.944;6.950;2024-02-21T08:02:24;101500.44;;;8.59;90.87
49473;BME280;73594;50.944;6.950;2024-02-21T08:05:10;101495.88;;;8.59;90.97
49473;BME280;73594;50.944;6.950;2024-02-21T08:07:57;101488.38;;;8.61;91.16
49473;BME280;73594;50.944;6.950;2024-02-21T08:10:43;101483.59;;;8.63;90.91
49473;BME280;73594;50.944;6.950;2024-02-21T08:13:28;101487.25;;;8.69;90.47
49473;BME280;73594;50.944;6.950;2024-02-21T08:16:14;101479.53;;;8.72;90.35
49473;BME280;73594;50.944;6.950;2024-02-21T08:19:00;101475.63;;;8.68;90.76
49473;BME280;73594;50.944;6.950;2024-02-21T08:21:47;101470.97;;;8.75;90.56
49473;BME280;73594;50.944;6.950;2024-02-21T08:24:33;101461.84;;;8.76;89.90
49473;BME280;73594;50.944;6.950;2024-02-21T08:27:18;101460.56;;;8.79;90.24
49473;BME280;73594;50.944;6.950;2024-02-21T08:30:04;101453.63;;;8.71;89.62
49473;BME280;73594;50.944;6.950;2024-02-21T08:32:52;101438.28;;;8.72;89.68
49473;BME280;73594;50.944;6.950;2024-02-21T08:35:39;101445.13;;;8.86;89.37
49473;BME280;73594;50.944;6.950;2024-02-21T08:38:25;101435.91;;;8.94;88.61
49473;BME280;73594;50.944;6.950;2024-02-21T08:41:10;101434.41;;;8.98;88.06
49473;BME280;73594;50.944;6.950;2024-02-21T08:43:56;101422.22;;;9.07;87.35
49473;BME280;73594;50.944;6.950;2024-02-21T08:46:42;101422.50;;;9.29;86.51
49473;BME280;73594;50.944;6.950;2024-02-21T08:49:28;101421.50;;;9.42;86.17
49473;BME280;73594;50.944;6.950;2024-02-21T08:52:14;101430.06;;;9.50;85.20
49473;BME280;73594;50.944;6.950;2024-02-21T08:54:59;101410.00;;;9.58;84.49
49473;BME280;73594;50.944;6.950;2024-02-21T08:57:45;101416.09;;;9.65;84.06
49473;BME280;73594;50.944;6.950;2024-02-21T09:00:30;101415.06;;;9.66;83.35
49473;BME280;73594;50.944;6.950;2024-02-21T09:03:16;101407.81;;;9.66;82.67
49473;BME280;73594;50.944;6.950;2024-02-21T09:06:07;101392.53;;;9.84;81.99
49473;BME280;73594;50.944;6.950;2024-02-21T09:08:53;101391.25;;;9.86;80.27
49473;BME280;73594;50.944;6.950;2024-02-21T09:11:38;101394.97;;;10.20;79.46
49473;BME280;73594;50.944;6.950;2024-02-21T09:14:25;101372.28;;;10.33;77.09
49473;BME280;73594;50.944;6.950;2024-02-21T09:17:11;101378.59;;;10.39;76.78
49473;BME280;73594;50.944;6.950;2024-02-21T09:19:57;101363.69;;;10.36;75.21
49473;BME280;73594;50.944;6.950;2024-02-21T09:22:48;101367.00;;;10.15;75.49
49473;BME280;73594;50.944;6.950;2024-02-21T09:25:33;101371.09;;;10.29;75.63
49473;BME280;73594;50.944;6.950;2024-02-21T09:28:19;101368.03;;;10.37;74.82
49473;BME280;73594;50.944;6.950;2024-02-21T09:31:05;101359.34;;;10.35;74.04
49473;BME280;73594;50.944;6.950;2024-02-21T09:33:53;101363.25;;;10.16;73.96
49473;BME280;73594;50.944;6.950;2024-02-21T09:36:39;101363.25;;;10.16;73.94
49473;BME280;73594;50.944;6.950;2024-02-21T09:39:25;101357.94;;;10.32;73.93
49473;BME280;73594;50.944;6.950;2024-02-21T09:42:11;101348.84;;;10.50;73.51
49473;BME280;73594;50.944;6.950;2024-02-21T09:44:57;101336.56;;;10.59;72.39
49473;BME280;73594;50.944;6.950;2024-02-21T09:50:57;101330.72;;;10.79;70.76
49473;BME280;73594;50.944;6.950;2024-02-21T09:53:44;101327.63;;;10.87;71.09
49473;BME280;73594;50.944;6.950;2024-02-21T09:56:31;101318.22;;;10.61;70.09
49473;BME280;73594;50.944;6.950;2024-02-21T09:59:17;101312.25;;;10.59;69.67
49473;BME280;73594;50.944;6.950;2024-02-21T10:02:03;101314.63;;;10.56;70.71
49473;BME280;73594;50.944;6.950;2024-02-21T10:04:48;101329.94;;;10.67;69.92
49473;BME280;73594;50.944;6.950;2024-02-21T10:07:34;101313.38;;;10.92;69.90
49473;BME280;73594;50.944;6.950;2024-02-21T10:10:20;101317.13;;;10.91;68.74
49473;BME280;73594;50.944;6.950;2024-02-21T10:13:07;101312.13;;;11.00;67.82
49473;BME280;73594;50.944;6.950;2024-02-21T10:16:06;101316.06;;;11.09;67.96
49473;BME280;73594;50.944;6.950;2024-02-21T10:18:54;101319.28;;;11.22;67.65
49473;BME280;73594;50.944;6.950;2024-02-21T10:21:39;101314.66;;;11.40;67.55
49473;BME280;73594;50.944;6.950;2024-02-21T10:24:28;101316.53;;;11.56;67.00
49473;BME280;73594;50.944;6.950;2024-02-21T10:27:14;101307.72;;;11.66;66.84
49473;BME280;73594;50.944;6.950;2024-02-21T10:29:59;101306.56;;;11.78;66.11
49473;BME280;73594;50.944;6.950;2024-02-21T10:32:53;101299.72;;;11.93;65.78
49473;BME280;73594;50.944;6.950;2024-02-21T10:35:38;101286.31;;;12.03;65.46
49473;BME280;73594;50.944;6.950;2024-02-21T10:38:24;101288.81;;;11.87;65.21
49473;BME280;73594;50.944;6.950;2024-02-21T10:41:14;101294.00;;;11.72;64.85
49473;BME280;73594;50.944;6.950;2024-02-21T10:44:03;101288.91;;;11.93;64.87
49473;BME280;73594;50.944;6.950;2024-02-21T10:46:50;101281.28;;;11.89;63.99
49473;BME280;73594;50.944;6.950;2024-02-21T10:49:39;101278.69;;;12.00;64.21
49473;BME280;73594;50.944;6.950;2024-02-21T10:55:38;101267.47;;;11.91;63.89
49473;BME280;73594;50.944;6.950;2024-02-21T10:58:25;101260.66;;;11.88;64.00
49473;BME280;73594;50.944;6.950;2024-02-21T11:01:12;101253.44;;;12.21;64.21
49473;BME280;73594;50.944;6.950;2024-02-21T11:04:03;101239.53;;;12.39;62.81
49473;BME280;73594;50.944;6.950;2024-02-21T11:06:49;101228.34;;;12.31;62.17
49473;BME280;73594;50.944;6.950;2024-02-21T11:09:36;101219.47;;;12.13;62.07
49473;BME280;73594;50.944;6.950;2024-02-21T11:12:22;101220.75;;;12.06;62.67
49473;BME280;73594;50.944;6.950;2024-02-21T11:15:08;101204.81;;;12.09;62.28
49473;BME280;73594;50.944;6.950;2024-02-21T11:17:55;101191.91;;;12.21;62.79
49473;BME280;73594;50.944;6.950;2024-02-21T11:20:49;101187.69;;;12.31;62.24
49473;BME280;73594;50.944;6.950;2024-02-21T11:23:36;101183.47;;;12.18;62.17
49473;BME280;73594;50.944;6.950;2024-02-21T11:26:22;101161.78;;;12.18;61.65
49473;BME280;73594;50.944;6.950;2024-02-21T11:29:08;101146.00;;;12.10;61.73
49473;BME280;73594;50.944;6.950;2024-02-21T11:31:57;101139.94;;;11.98;61.98
49473;BME280;73594;50.944;6.950;2024-02-21T11:35:02;101133.97;;;11.96;62.42
49473;BME280;73594;50.944;6.950;2024-02-21T11:37:49;101118.31;;;12.03;62.20
49473;BME280;73594;50.944;6.950;2024-02-21T11:40:35;101099.91;;;12.05;62.75
49473;BME280;73594;50.944;6.950;2024-02-21T11:43:20;101090.19;;;11.82;62.89
49473;BME280;73594;50.944;6.950;2024-02-21T11:46:06;101096.03;;;11.96;62.67
49473;BME280;73594;50.944;6.950;2024-02-21T11:48:52;101099.16;;;12.14;62.25
49473;BME280;73594;50.944;6.950;2024-02-21T11:51:38;101069.22;;;12.31;61.59
49473;BME280;73594;50.944;6.950;2024-02-21T11:54:23;101064.66;;;12.37;60.83
49473;BME280;73594;50.944;6.950;2024-02-21T11:57:10;101073.16;;;12.50;60.85
49473;BME280;73594;50.944;6.950;2024-02-21T11:59:56;101049.84;;;12.55;60.72
49473;BME280;73594;50.944;6.950;2024-02-21T12:02:42;101040.03;;;12.43;60.28
49473;BME280;73594;50.944;6.950;2024-02-21T12:05:29;101040.44;;;12.25;61.22
49473;BME280;73594;50.944;6.950;2024-02-21T12:08:15;101033.09;;;12.20;61.03
49473;BME280;73594;50.944;6.950;2024-02-21T12:11:00;101019.34;;;12.32;61.30
49473;BME280;73594;50.944;6.950;2024-02-21T12:13:46;101009.41;;;12.48;60.59
49473;BME280;73594;50.944;6.950;2024-02-21T12:16:32;101002.41;;;12.57;59.91
49473;BME280;73594;50.944;6.950;2024-02-21T12:19:18;100987.72;;;12.48;60.06
49473;BME280;73594;50.944;6.950;2024-02-21T12:22:04;100974.88;;;12.28;60.34
49473;BME280;73594;50.944;6.950;2024-02-21T12:24:51;100966.22;;;12.31;60.48
49473;BME280;73594;50.944;6.950;2024-02-21T12:27:37;100956.63;;;12.13;60.99
49473;BME280;73594;50.944;6.950;2024-02-21T12:30:22;100955.81;;;12.18;60.82
49473;BME280;73594;50.944;6.950;2024-02-21T12:33:08;100949.06;;;12.20;60.61
49473;BME280;73594;50.944;6.950;2024-02-21T12:35:53;100945.34;;;12.27;60.76
49473;BME280;73594;50.944;6.950;2024-02-21T12:38:40;100931.53;;;12.33;60.42
49473;BME280;73594;50.944;6.950;2024-02-21T12:41:27;100921.53;;;12.39;61.33
49473;BME280;73594;50.944;6.950;2024-02-21T12:44:13;100903.41;;;12.55;60.87
49473;BME280;73594;50.944;6.950;2024-02-21T12:46:58;100894.75;;;12.58;60.65
49473;BME280;73594;50.944;6.950;2024-02-21T12:49:44;100863.03;;;12.63;60.19
49473;BME280;73594;50.944;6.950;2024-02-21T12:52:30;100831.34;;;12.69;59.60
49473;BME280;73594;50.944;6.950;2024-02-21T12:55:16;100784.41;;;12.94;59.83
49473;BME280;73594;50.944;6.950;2024-02-21T12:58:03;100803.69;;;12.72;60.10
49473;BME280;73594;50.944;6.950;2024-02-21T13:00:54;100819.69;;;12.73;60.20
49473;BME280;73594;50.944;6.950;2024-02-21T13:03:40;100838.66;;;12.73;59.82
49473;BME280;73594;50.944;6.950;2024-02-21T13:06:26;100863.63;;;12.75;59.71
49473;BME280;73594;50.944;6.950;2024-02-21T13:09:11;100815.66;;;13.01;59.66
49473;BME280;73594;50.944;6.950;2024-02-21T13:11:57;100778.75;;;13.05;58.73
49473;BME280;73594;50.944;6.950;2024-02-21T13:14:43;100794.22;;;13.05;58.08
49473;BME280;73594;50.944;6.950;2024-02-21T13:17:29;100782.28;;;13.01;58.80
49473;BME280;73594;50.944;6.950;2024-02-21T13:20:17;100791.75;;;12.78;59.50
49473;BME280;73594;50.944;6.950;2024-02-21T13:23:03;100803.69;;;12.92;59.02
49473;BME280;73594;50.944;6.950;2024-02-21T13:25:48;100803.41;;;12.94;58.63
49473;BME280;73594;50.944;6.950;2024-02-21T13:28:36;100777.38;;;12.93;58.76
49473;BME280;73594;50.944;6.950;2024-02-21T13:31:21;100794.47;;;12.88;59.26
49473;BME280;73594;50.944;6.950;2024-02-21T13:34:07;100812.63;;;12.93;58.41
49473;BME280;73594;50.944;6.950;2024-02-21T13:36:54;100789.84;;;12.89;58.40
49473;BME280;73594;50.944;6.950;2024-02-21T13:39:39;100803.13;;;12.80;58.29
49473;BME280;73594;50.944;6.950;2024-02-21T13:42:25;100778.19;;;12.73;58.83
49473;BME280;73594;50.944;6.950;2024-02-21T13:45:14;100761.38;;;12.71;58.80
49473;BME280;73594;50.944;6.950;2024-02-21T13:48:00;100752.38;;;12.55;59.05
49473;BME280;73594;50.944;6.950;2024-02-21T13:50:45;100761.88;;;12.52;59.10
49473;BME280;73594;50.944;6.950;2024-02-21T13:53:31;100761.06;;;12.62;59.18
49473;BME280;73594;50.944;6.950;2024-02-21T13:56:17;100754.81;;;12.51;59.36
49473;BME280;73594;50.944;6.950;2024-02-21T13:59:02;100745.06;;;12.45;59.52
49473;BME280;73594;50.944;6.950;2024-02-21T14:01:48;100735.84;;;12.51;59.34
49473;BME280;73594;50.944;6.950;2024-02-21T14:04:34;100714.16;;;12.62;59.24
49473;BME280;73594;50.944;6.950;2024-02-21T14:07:20;100711.72;;;12.65;59.15
49473;BME280;73594;50.944;6.950;2024-02-21T14:10:06;100699.50;;;12.58;59.59
49473;BME280;73594;50.944;6.950;2024-02-21T14:12:52;100708.72;;;12.51;58.87
49473;BME280;73594;50.944;6.950;2024-02-21T14:15:41;100709.81;;;12.61;59.01
49473;BME280;73594;50.944;6.950;2024-02-21T14:18:27;100710.34;;;12.32;58.69
49473;BME280;73594;50.944;6.950;2024-02-21T14:21:13;100697.88;;;12.36;59.55
49473;BME280;73594;50.944;6.950;2024-02-21T14:23:59;100691.38;;;12.42;59.96
49473;BME280;73594;50.944;6.950;2024-02-21T14:26:48;100687.03;;;12.46;59.07
49473;BME280;73594;50.944;6.950;2024-02-21T14:29:34;100678.09;;;12.56;59.67
49473;BME280;73594;50.944;6.950;2024-02-21T14:32:20;100665.88;;;12.48;59.64
49473;BME280;73594;50.944;6.950;2024-02-21T14:35:06;100660.47;;;12.48;60.08
49473;BME280;73594;50.944;6.950;2024-02-21T14:37:52;100654.78;;;12.35;60.08
49473;BME280;73594;50.944;6.950;2024-02-21T14:40:38;100649.91;;;12.37;59.70
49473;BME280;73594;50.944;6.950;2024-02-21T14:43:24;100653.97;;;12.44;60.11